createdAt,value
2022-07-29T00:00:45.762Z,100783.95
2022-07-29T00:03:14.918Z,100786.20
2022-07-29T00:05:43.333Z,100785.41
2022-07-29T00:08:12.682Z,100787.61
2022-07-29T00:10:40.854Z,100789.09
2022-07-29T00:13:08.778Z,100787.95
2022-07-29T00:15:36.989Z,100787.98
2022-07-29T00:18:05.137Z,100791.44
2022-07-29T00:20:32.979Z,100789.54
2022-07-29T00:23:01.431Z,100788.77
2022-07-29T00:25:29.208Z,100792.50
2022-07-29T00:27:57.025Z,100792.46
2022-07-29T00:30:24.864Z,100803.69
2022-07-29T00:32:52.644Z,100802.90
2022-07-29T00:35:39.234Z,100800.98
2022-07-29T00:38:08.016Z,100798.09
2022-07-29T00:40:35.821Z,100795.05
2022-07-29T00:43:03.926Z,100792.89
2022-07-29T00:45:31.989Z,100789.92
2022-07-29T00:48:00.294Z,100785.83
2022-07-29T00:50:28.474Z,100783.36
2022-07-29T00:52:56.300Z,100783.98
2022-07-29T00:55:24.273Z,100783.30
2022-07-29T00:57:53.090Z,100781.38
2022-07-29T01:00:24.604Z,100782.20
2022-07-29T01:02:52.701Z,100785.36
2022-07-29T01:05:22.477Z,100789.13
2022-07-29T01:07:54.697Z,100785.80
2022-07-29T01:10:23.612Z,100783.68
2022-07-29T01:12:52.967Z,100787.04
2022-07-29T01:15:21.318Z,100794.54
2022-07-29T01:17:58.731Z,100793.09
2022-07-29T01:21:01.033Z,100787.33
2022-07-29T01:23:46.953Z,100784.89
2022-07-29T01:26:33.444Z,100786.95
2022-07-29T01:29:23.617Z,100788.27
2022-07-29T01:32:01.245Z,100792.05
2022-07-29T01:34:37.129Z,100791.63
2022-07-29T01:37:31.147Z,100790.66
2022-07-29T01:39:59.994Z,100789.58
2022-07-29T01:42:46.566Z,100790.75
2022-07-29T01:46:03.691Z,100793.35
2022-07-29T01:48:51.552Z,100795.04
2022-07-29T01:51:29.489Z,100791.24
2022-07-29T01:54:06.437Z,100799.08
2022-07-29T01:56:36.486Z,100800.61
2022-07-29T01:59:06.119Z,100805.65
2022-07-29T02:01:34.238Z,100803.14
2022-07-29T02:04:07.475Z,100801.60
2022-07-29T02:06:36.386Z,100799.17
2022-07-29T02:09:05.626Z,100800.15
2022-07-29T02:11:37.202Z,100799.98
2022-07-29T02:14:05.536Z,100797.27
2022-07-29T02:16:34.763Z,100793.83
2022-07-29T02:19:05.125Z,100792.45
2022-07-29T02:21:33.221Z,100791.17
2022-07-29T02:24:02.600Z,100789.63
2022-07-29T02:26:32.535Z,100791.15
2022-07-29T02:29:01.343Z,100787.95
2022-07-29T02:31:33.978Z,100788.70
2022-07-29T02:34:08.544Z,100790.88
2022-07-29T02:36:37.610Z,100791.88
2022-07-29T02:39:06.370Z,100795.92
2022-07-29T02:41:48.887Z,100803.23
2022-07-29T02:44:21.903Z,100799.27
2022-07-29T02:47:22.196Z,100800.00
2022-07-29T02:49:56.609Z,100800.66
2022-07-29T02:52:41.032Z,100801.29
2022-07-29T02:55:32.029Z,100801.99
2022-07-29T02:58:15.632Z,100803.70
2022-07-29T03:00:44.022Z,100799.31
2022-07-29T03:03:17.414Z,100798.56
2022-07-29T03:05:45.674Z,100803.05
2022-07-29T03:08:16.115Z,100803.67
2022-07-29T03:10:46.618Z,100802.41
2022-07-29T03:13:15.696Z,100795.26
2022-07-29T03:15:44.677Z,100800.11
2022-07-29T03:18:13.131Z,100799.11
2022-07-29T03:20:41.537Z,100799.71
2022-07-29T03:23:09.781Z,100798.49
2022-07-29T03:25:37.667Z,100798.41
2022-07-29T03:28:05.777Z,100800.14
2022-07-29T03:30:33.795Z,100796.10
2022-07-29T03:33:02.034Z,100793.16
2022-07-29T03:35:32.581Z,100799.13
2022-07-29T03:38:00.605Z,100799.30
2022-07-29T03:40:36.667Z,100804.84
2022-07-29T03:43:05.184Z,100804.22
2022-07-29T03:45:33.401Z,100804.92
2022-07-29T03:48:05.327Z,100807.66
2022-07-29T03:50:34.978Z,100807.95
2022-07-29T03:53:03.867Z,100808.91
2022-07-29T03:55:37.616Z,100805.19
2022-07-29T03:58:06.476Z,100799.64
2022-07-29T04:00:34.903Z,100797.12
2022-07-29T04:03:05.167Z,100800.05
2022-07-29T04:05:39.240Z,100798.58
2022-07-29T04:08:07.072Z,100803.23
2022-07-29T04:10:35.176Z,100804.77
2022-07-29T04:13:03.856Z,100806.39
2022-07-29T04:15:32.035Z,100806.09
2022-07-29T04:18:00.528Z,100804.79
2022-07-29T04:20:28.531Z,100805.16
2022-07-29T04:22:56.537Z,100806.51
2022-07-29T04:25:24.464Z,100807.02
2022-07-29T04:28:01.182Z,100799.67
2022-07-29T04:30:30.677Z,100803.13
2022-07-29T04:32:59.454Z,100801.18
2022-07-29T04:35:28.236Z,100804.83
2022-07-29T04:37:56.878Z,100804.82
2022-07-29T04:40:25.337Z,100805.13
2022-07-29T04:42:53.420Z,100802.92
2022-07-29T04:45:22.875Z,100809.40
2022-07-29T04:47:51.151Z,100816.18
2022-07-29T04:50:19.090Z,100818.81
2022-07-29T04:52:46.837Z,100823.77
2022-07-29T04:55:14.719Z,100828.14
2022-07-29T04:57:42.549Z,100823.16
2022-07-29T05:00:10.975Z,100822.73
2022-07-29T05:02:39.360Z,100826.59
2022-07-29T05:05:07.797Z,100827.54
2022-07-29T05:07:35.775Z,100829.23
2022-07-29T05:10:04.346Z,100829.88
2022-07-29T05:12:32.246Z,100832.13
2022-07-29T05:15:00.049Z,100826.56
2022-07-29T05:17:27.890Z,100824.89
2022-07-29T05:19:55.698Z,100826.58
2022-07-29T05:22:24.696Z,100833.64
2022-07-29T05:24:53.433Z,100833.61
2022-07-29T05:27:21.280Z,100831.02
2022-07-29T05:29:49.248Z,100826.40
2022-07-29T05:32:17.034Z,100822.02
2022-07-29T05:34:50.297Z,100818.38
2022-07-29T05:37:20.717Z,100821.18
2022-07-29T05:39:56.148Z,100827.05
2022-07-29T05:42:26.333Z,100823.05
2022-07-29T05:44:54.688Z,100815.45
2022-07-29T05:47:23.089Z,100816.36
2022-07-29T05:49:51.704Z,100815.69
2022-07-29T05:52:19.696Z,100810.86
2022-07-29T05:54:47.757Z,100817.46
2022-07-29T05:57:23.395Z,100813.20
2022-07-29T05:59:52.042Z,100812.14
2022-07-29T06:02:20.116Z,100810.45
2022-07-29T06:04:48.128Z,100812.58
2022-07-29T06:07:17.239Z,100813.73
2022-07-29T06:09:45.197Z,100805.11
2022-07-29T06:12:13.114Z,100804.33
2022-07-29T06:14:41.134Z,100806.79
2022-07-29T06:17:09.139Z,100808.75
2022-07-29T06:19:37.491Z,100812.10
2022-07-29T06:22:05.881Z,100810.02
2022-07-29T06:24:33.693Z,100809.84
2022-07-29T06:27:01.632Z,100809.36
2022-07-29T06:29:29.575Z,100807.55
2022-07-29T06:31:57.715Z,100807.93
2022-07-29T06:34:25.484Z,100813.30
2022-07-29T06:36:54.274Z,100809.09
2022-07-29T06:39:22.405Z,100812.67
2022-07-29T06:41:51.642Z,100811.25
2022-07-29T06:44:20.372Z,100810.16
2022-07-29T06:46:51.260Z,100812.73
2022-07-29T06:49:19.405Z,100815.23
2022-07-29T06:51:47.752Z,100810.55
2022-07-29T06:54:16.730Z,100815.23
2022-07-29T06:56:45.100Z,100812.87
2022-07-29T06:59:13.505Z,100807.79
2022-07-29T07:01:43.411Z,100806.30
2022-07-29T07:04:12.356Z,100811.65
2022-07-29T07:06:40.540Z,100812.99
2022-07-29T07:09:08.643Z,100804.20
2022-07-29T07:11:36.748Z,100801.11
2022-07-29T07:14:05.066Z,100803.72
2022-07-29T07:16:33.416Z,100803.98
2022-07-29T07:19:02.005Z,100805.44
2022-07-29T07:21:31.590Z,100804.66
2022-07-29T07:24:00.418Z,100802.41
2022-07-29T07:26:28.741Z,100806.02
2022-07-29T07:28:57.073Z,100806.38
2022-07-29T07:31:25.159Z,100806.15
2022-07-29T07:33:54.733Z,100806.13
2022-07-29T07:36:23.605Z,100805.35
2022-07-29T07:38:51.834Z,100809.00
2022-07-29T07:41:19.863Z,100806.54
2022-07-29T07:43:47.940Z,100810.70
2022-07-29T07:46:16.846Z,100810.56
2022-07-29T07:48:45.746Z,100810.86
2022-07-29T07:51:13.796Z,100808.19
2022-07-29T07:53:41.791Z,100810.95
2022-07-29T07:56:11.780Z,100804.34
2022-07-29T07:58:40.684Z,100808.77
2022-07-29T08:01:09.773Z,100810.04
2022-07-29T08:03:37.601Z,100814.41
2022-07-29T08:06:06.157Z,100812.42
2022-07-29T08:08:34.166Z,100812.71
2022-07-29T08:11:09.179Z,100814.28
2022-07-29T08:13:38.914Z,100817.09
2022-07-29T08:16:16.106Z,100814.27
2022-07-29T08:18:46.355Z,100809.21
2022-07-29T08:21:16.597Z,100807.48
2022-07-29T08:23:58.609Z,100806.93
2022-07-29T08:26:27.830Z,100804.62
2022-07-29T08:28:55.815Z,100806.88
2022-07-29T08:31:23.930Z,100806.79
2022-07-29T08:33:52.093Z,100807.48
2022-07-29T08:36:22.052Z,100808.31
2022-07-29T08:38:50.762Z,100808.52
2022-07-29T08:41:21.705Z,100803.33
2022-07-29T08:43:51.122Z,100802.37
2022-07-29T08:46:20.253Z,100796.19
2022-07-29T08:48:48.980Z,100796.32
2022-07-29T08:51:19.558Z,100794.23
2022-07-29T08:53:49.805Z,100798.23
2022-07-29T08:56:19.847Z,100801.16
2022-07-29T08:58:52.069Z,100799.56
2022-07-29T09:01:35.894Z,100798.19
2022-07-29T09:04:12.812Z,100791.80
2022-07-29T09:06:44.944Z,100793.84
2022-07-29T09:09:14.711Z,100796.42
2022-07-29T09:11:43.318Z,100793.86
2022-07-29T09:14:13.558Z,100789.35
2022-07-29T09:16:56.108Z,100789.08
2022-07-29T09:19:25.186Z,100785.45
2022-07-29T09:21:59.837Z,100782.88
2022-07-29T09:24:40.868Z,100783.83
2022-07-29T09:27:10.769Z,100779.73
2022-07-29T09:29:39.333Z,100777.64
2022-07-29T09:32:10.806Z,100775.71
2022-07-29T09:34:39.175Z,100778.38
2022-07-29T09:37:07.213Z,100779.20
2022-07-29T09:39:46.734Z,100777.60
2022-07-29T09:42:28.960Z,100779.06
2022-07-29T09:44:57.086Z,100777.99
2022-07-29T09:47:42.461Z,100781.89
2022-07-29T09:50:10.324Z,100772.75
2022-07-29T09:52:52.971Z,100770.29
2022-07-29T09:55:20.986Z,100770.88
2022-07-29T09:57:48.781Z,100770.38
2022-07-29T10:00:19.793Z,100767.31
2022-07-29T10:02:48.481Z,100764.73
2022-07-29T10:05:24.940Z,100760.20
2022-07-29T10:07:57.754Z,100761.40
2022-07-29T10:10:29.496Z,100754.70
2022-07-29T10:13:06.410Z,100753.85
2022-07-29T10:15:40.089Z,100755.23
2022-07-29T10:18:09.288Z,100749.09
2022-07-29T10:20:38.162Z,100744.23
2022-07-29T10:23:06.475Z,100743.23
2022-07-29T10:25:34.525Z,100741.84
2022-07-29T10:28:02.438Z,100741.33
2022-07-29T10:30:30.254Z,100741.62
2022-07-29T10:33:07.799Z,100740.08
2022-07-29T10:35:54.487Z,100738.48
2022-07-29T10:41:47.642Z,100740.89
2022-07-29T10:44:22.998Z,100732.49
2022-07-29T10:46:52.779Z,100733.02
2022-07-29T10:49:30.393Z,100727.50
2022-07-29T10:52:06.683Z,100725.50
2022-07-29T10:54:35.007Z,100724.55
2022-07-29T10:57:21.860Z,100721.11
2022-07-29T11:00:09.973Z,100717.63
2022-07-29T11:02:44.583Z,100709.39
2022-07-29T11:05:19.876Z,100710.88
2022-07-29T11:08:20.105Z,100706.00
2022-07-29T11:10:49.956Z,100703.48
2022-07-29T11:13:55.816Z,100700.48
2022-07-29T11:16:25.626Z,100697.88
2022-07-29T11:19:13.139Z,100701.77
2022-07-29T11:22:05.453Z,100700.86
2022-07-29T11:24:33.351Z,100694.27
2022-07-29T11:27:21.497Z,100694.04
2022-07-29T11:29:52.231Z,100693.30
2022-07-29T11:32:24.161Z,100692.98
2022-07-29T11:35:16.692Z,100692.88
2022-07-29T11:37:52.184Z,100686.83
2022-07-29T11:40:24.225Z,100683.65
2022-07-29T11:42:53.407Z,100679.52
2022-07-29T11:45:44.710Z,100688.28
2022-07-29T11:48:28.046Z,100685.94
2022-07-29T11:51:00.889Z,100682.88
2022-07-29T11:53:32.567Z,100683.84
2022-07-29T11:56:03.845Z,100678.17
2022-07-29T11:58:33.044Z,100681.60
2022-07-29T12:01:04.723Z,100680.21
2022-07-29T12:04:04.264Z,100673.59
2022-07-29T12:06:37.940Z,100671.08
2022-07-29T12:09:14.453Z,100673.36
2022-07-29T12:11:47.318Z,100676.95
2022-07-29T12:14:33.440Z,100679.54
2022-07-29T12:17:02.981Z,100674.83
2022-07-29T12:19:44.443Z,100675.58
2022-07-29T12:22:12.897Z,100670.60
2022-07-29T12:24:45.475Z,100670.52
2022-07-29T12:27:18.539Z,100665.36
2022-07-29T12:29:57.437Z,100659.48
2022-07-29T12:32:33.882Z,100659.75
2022-07-29T12:35:10.372Z,100660.39
2022-07-29T12:37:41.137Z,100661.48
2022-07-29T12:40:13.629Z,100663.08
2022-07-29T12:42:41.889Z,100657.36
2022-07-29T12:45:10.023Z,100654.02
2022-07-29T12:47:53.176Z,100657.55
2022-07-29T12:50:25.926Z,100650.17
2022-07-29T12:52:54.757Z,100650.46
2022-07-29T12:55:52.630Z,100648.02
2022-07-29T12:58:28.529Z,100643.49
2022-07-29T13:01:05.386Z,100643.39
2022-07-29T13:03:58.056Z,100639.98
2022-07-29T13:06:38.947Z,100642.73
2022-07-29T13:09:10.500Z,100635.13
2022-07-29T13:11:45.294Z,100637.00
2022-07-29T13:14:35.488Z,100634.88
2022-07-29T13:17:12.425Z,100632.20
2022-07-29T13:19:49.199Z,100632.13
2022-07-29T13:22:20.202Z,100628.06
2022-07-29T13:24:53.634Z,100620.77
2022-07-29T13:27:26.989Z,100619.87
2022-07-29T13:29:57.647Z,100622.14
2022-07-29T13:32:28.574Z,100618.96
2022-07-29T13:34:58.174Z,100619.15
2022-07-29T13:37:28.253Z,100622.73
2022-07-29T13:39:57.904Z,100621.13
2022-07-29T13:42:26.640Z,100617.88
2022-07-29T13:44:54.519Z,100620.20
2022-07-29T13:47:23.111Z,100617.60
2022-07-29T13:50:02.249Z,100616.74
2022-07-29T13:52:30.519Z,100614.70
2022-07-29T13:54:58.613Z,100617.41
2022-07-29T13:57:27.405Z,100610.85
2022-07-29T13:59:55.200Z,100610.46
2022-07-29T14:02:25.627Z,100603.36
2022-07-29T14:04:55.250Z,100607.16
2022-07-29T14:07:23.652Z,100604.13
2022-07-29T14:09:51.888Z,100603.53
2022-07-29T14:12:20.305Z,100601.73
2022-07-29T14:14:48.102Z,100599.28
2022-07-29T14:17:16.548Z,100597.52
2022-07-29T14:19:44.363Z,100594.23
2022-07-29T14:22:12.453Z,100597.36
2022-07-29T14:24:40.701Z,100587.72
2022-07-29T14:27:09.079Z,100588.00
2022-07-29T14:29:38.761Z,100588.09
2022-07-29T14:32:08.272Z,100588.52
2022-07-29T14:34:37.620Z,100588.77
2022-07-29T14:37:07.074Z,100588.67
2022-07-29T14:39:42.322Z,100587.56
2022-07-29T14:42:12.880Z,100584.14
2022-07-29T14:44:42.409Z,100582.22
2022-07-29T14:47:10.691Z,100582.44
2022-07-29T14:49:38.497Z,100581.51
2022-07-29T14:52:06.634Z,100576.27
2022-07-29T14:54:35.007Z,100578.55
2022-07-29T14:57:02.794Z,100569.94
2022-07-29T14:59:31.277Z,100561.77
2022-07-29T15:01:59.584Z,100563.05
2022-07-29T15:04:27.667Z,100561.08
2022-07-29T15:06:55.535Z,100554.58
2022-07-29T15:09:24.965Z,100550.86
2022-07-29T15:11:53.004Z,100550.27
2022-07-29T15:14:20.822Z,100546.18
2022-07-29T15:16:49.119Z,100552.50
2022-07-29T15:19:17.067Z,100550.61
2022-07-29T15:21:48.714Z,100544.39
2022-07-29T15:24:18.138Z,100539.81
2022-07-29T15:26:46.949Z,100538.89
2022-07-29T15:29:15.252Z,100536.25
2022-07-29T15:31:44.481Z,100533.58
2022-07-29T15:34:12.456Z,100533.42
2022-07-29T15:36:56.057Z,100535.23
2022-07-29T15:39:24.948Z,100531.92
2022-07-29T15:41:52.803Z,100528.65
2022-07-29T15:44:21.472Z,100528.23
2022-07-29T15:47:05.860Z,100529.02
2022-07-29T15:49:48.637Z,100525.17
2022-07-29T15:52:25.073Z,100522.48
2022-07-29T15:54:56.008Z,100520.82
2022-07-29T15:57:24.825Z,100516.41
2022-07-29T15:59:53.031Z,100516.55
2022-07-29T16:02:21.017Z,100519.36
2022-07-29T16:04:48.908Z,100521.46
2022-07-29T16:07:17.088Z,100524.13
2022-07-29T16:09:49.236Z,100522.88
2022-07-29T16:12:20.615Z,100519.06
2022-07-29T16:14:49.659Z,100514.81
2022-07-29T16:17:18.336Z,100509.79
2022-07-29T16:19:50.311Z,100505.89
2022-07-29T16:22:18.246Z,100508.56
2022-07-29T16:24:46.119Z,100504.86
2022-07-29T16:27:14.629Z,100508.78
2022-07-29T16:29:42.586Z,100507.54
2022-07-29T16:32:10.711Z,100508.98
2022-07-29T16:34:38.617Z,100507.80
2022-07-29T16:37:06.613Z,100509.32
2022-07-29T16:39:34.510Z,100515.36
2022-07-29T16:42:05.049Z,100522.52
2022-07-29T16:44:34.861Z,100523.32
2022-07-29T16:47:04.276Z,100528.02
2022-07-29T16:49:32.586Z,100531.92
2022-07-29T16:52:00.748Z,100536.39
2022-07-29T16:54:28.986Z,100539.16
2022-07-29T16:56:57.311Z,100539.40
2022-07-29T16:59:25.386Z,100541.05
2022-07-29T17:01:53.233Z,100538.73
2022-07-29T17:04:22.872Z,100537.84
2022-07-29T17:06:50.957Z,100543.02
2022-07-29T17:09:18.888Z,100539.40
2022-07-29T17:11:54.901Z,100539.68
2022-07-29T17:14:25.433Z,100542.49
2022-07-29T17:17:02.590Z,100540.48
2022-07-29T17:19:35.167Z,100540.71
2022-07-29T17:22:12.630Z,100539.86
2022-07-29T17:24:44.069Z,100541.95
2022-07-29T17:27:11.966Z,100539.28
2022-07-29T17:29:40.004Z,100534.46
2022-07-29T17:32:09.116Z,100536.68
2022-07-29T17:34:41.083Z,100537.49
2022-07-29T17:37:11.145Z,100539.74
2022-07-29T17:39:41.232Z,100538.82
2022-07-29T17:42:11.073Z,100536.39
2022-07-29T17:44:39.826Z,100543.42
2022-07-29T17:47:15.659Z,100542.59
2022-07-29T17:49:45.326Z,100549.94
2022-07-29T17:52:13.291Z,100551.12
2022-07-29T17:54:41.223Z,100548.27
2022-07-29T17:57:09.202Z,100547.86
2022-07-29T17:59:38.141Z,100546.16
2022-07-29T18:02:06.046Z,100540.19
2022-07-29T18:04:34.067Z,100543.27
2022-07-29T18:07:02.138Z,100541.00
2022-07-29T18:09:30.283Z,100541.86
2022-07-29T18:11:58.131Z,100539.41
2022-07-29T18:14:26.098Z,100536.98
2022-07-29T18:16:53.865Z,100543.53
2022-07-29T18:19:22.001Z,100543.41
2022-07-29T18:21:54.178Z,100548.77
2022-07-29T18:24:25.912Z,100550.11
2022-07-29T18:26:54.121Z,100549.95
2022-07-29T18:29:21.978Z,100553.34
2022-07-29T18:31:50.319Z,100547.70
2022-07-29T18:34:19.905Z,100543.11
2022-07-29T18:36:47.866Z,100539.56
2022-07-29T18:39:20.873Z,100539.77
2022-07-29T18:41:51.408Z,100537.38
2022-07-29T18:44:22.114Z,100542.13
2022-07-29T18:46:52.029Z,100546.14
2022-07-29T18:49:20.117Z,100549.07
2022-07-29T18:51:49.342Z,100550.35
2022-07-29T18:54:18.053Z,100548.89
2022-07-29T18:56:46.733Z,100551.04
2022-07-29T18:59:20.198Z,100551.58
2022-07-29T19:01:48.629Z,100554.30
2022-07-29T19:04:17.334Z,100554.70
2022-07-29T19:06:46.835Z,100557.59
2022-07-29T19:09:14.752Z,100554.55
2022-07-29T19:11:42.595Z,100557.20
2022-07-29T19:14:10.967Z,100560.59
2022-07-29T19:16:38.836Z,100564.27
2022-07-29T19:19:08.516Z,100568.48
2022-07-29T19:21:36.677Z,100567.92
2022-07-29T19:24:11.077Z,100570.92
2022-07-29T19:26:47.135Z,100569.35
2022-07-29T19:29:15.743Z,100566.17
2022-07-29T19:31:44.083Z,100560.45
2022-07-29T19:34:12.623Z,100552.63
2022-07-29T19:36:41.826Z,100555.10
2022-07-29T19:39:10.516Z,100559.77
2022-07-29T19:41:38.490Z,100568.81
2022-07-29T19:44:06.233Z,100577.41
2022-07-29T19:46:34.002Z,100573.73
2022-07-29T19:49:01.973Z,100573.08
2022-07-29T19:51:29.927Z,100577.86
2022-07-29T19:53:58.130Z,100580.43
2022-07-29T19:56:27.447Z,100578.06
2022-07-29T19:58:57.057Z,100576.58
2022-07-29T20:01:25.014Z,100574.52
2022-07-29T20:03:53.876Z,100569.90
2022-07-29T20:06:23.221Z,100575.21
2022-07-29T20:08:55.364Z,100569.98
2022-07-29T20:11:26.766Z,100573.19
2022-07-29T20:13:54.647Z,100575.34
2022-07-29T20:16:22.800Z,100579.52
2022-07-29T20:18:53.241Z,100581.64
2022-07-29T20:21:21.084Z,100580.80
2022-07-29T20:23:49.095Z,100579.61
2022-07-29T20:26:17.475Z,100578.00
2022-07-29T20:28:49.288Z,100578.20
2022-07-29T20:31:18.808Z,100577.11
2022-07-29T20:33:47.362Z,100571.67
2022-07-29T20:36:15.410Z,100571.30
2022-07-29T20:38:43.715Z,100569.53
2022-07-29T20:41:11.690Z,100567.71
2022-07-29T20:43:40.085Z,100565.43
2022-07-29T20:46:08.031Z,100558.71
2022-07-29T20:48:35.918Z,100553.84
2022-07-29T20:51:03.926Z,100554.80
2022-07-29T20:53:33.953Z,100557.24
2022-07-29T20:56:01.853Z,100552.60
2022-07-29T20:58:29.648Z,100554.81
2022-07-29T21:00:57.627Z,100555.54
2022-07-29T21:03:25.524Z,100552.20
2022-07-29T21:05:55.072Z,100549.42
2022-07-29T21:08:23.009Z,100546.25
2022-07-29T21:10:50.851Z,100547.70
2022-07-29T21:13:20.616Z,100549.17
2022-07-29T21:15:50.309Z,100545.63
2022-07-29T21:18:30.753Z,100545.98
2022-07-29T21:21:01.354Z,100548.50
2022-07-29T21:23:30.200Z,100548.77
2022-07-29T21:25:58.316Z,100547.51
2022-07-29T21:28:26.634Z,100547.61
2022-07-29T21:30:55.892Z,100549.73
2022-07-29T21:33:24.831Z,100552.64
2022-07-29T21:36:20.322Z,100549.36
2022-07-29T21:38:40.497Z,100545.33
2022-07-29T21:41:08.524Z,100544.36
2022-07-29T21:43:36.316Z,100542.67
2022-07-29T21:46:04.922Z,100544.33
2022-07-29T21:48:33.097Z,100541.80
2022-07-29T21:51:00.959Z,100538.96
2022-07-29T21:53:28.841Z,100536.26
2022-07-29T21:55:58.632Z,100533.45
2022-07-29T21:58:27.479Z,100532.24
2022-07-29T22:00:55.280Z,100530.13
2022-07-29T22:03:23.115Z,100529.91
2022-07-29T22:05:50.924Z,100530.22
2022-07-29T22:08:21.048Z,100532.66
2022-07-29T22:10:48.800Z,100530.86
2022-07-29T22:13:16.742Z,100530.08
2022-07-29T22:15:47.162Z,100531.48
2022-07-29T22:18:20.996Z,100531.58
2022-07-29T22:20:50.026Z,100535.01
2022-07-29T22:23:17.907Z,100527.19
2022-07-29T22:25:45.894Z,100529.39
2022-07-29T22:28:14.997Z,100531.05
2022-07-29T22:30:42.900Z,100530.74
2022-07-29T22:33:17.967Z,100529.52
2022-07-29T22:35:48.437Z,100528.70
2022-07-29T22:38:19.524Z,100525.77
2022-07-29T22:40:50.663Z,100525.55
2022-07-29T22:43:18.772Z,100525.25
2022-07-29T22:45:46.878Z,100520.27
2022-07-29T22:48:14.826Z,100526.20
2022-07-29T22:50:42.612Z,100525.93
2022-07-29T22:53:10.476Z,100523.83
2022-07-29T22:55:38.565Z,100523.83
2022-07-29T22:58:06.439Z,100522.31
2022-07-29T23:00:34.500Z,100527.37
2022-07-29T23:03:02.388Z,100525.23
2022-07-29T23:05:30.547Z,100525.08
2022-07-29T23:07:58.381Z,100523.57
2022-07-29T23:10:26.745Z,100524.03
2022-07-29T23:12:54.636Z,100526.16
2022-07-29T23:15:23.085Z,100520.60
2022-07-29T23:17:51.654Z,100517.05
2022-07-29T23:20:19.535Z,100518.39
2022-07-29T23:22:47.360Z,100515.98
2022-07-29T23:25:15.097Z,100512.09
2022-07-29T23:27:43.063Z,100507.62
2022-07-29T23:30:11.842Z,100502.85
2022-07-29T23:32:41.022Z,100500.11
2022-07-29T23:35:09.557Z,100498.54
2022-07-29T23:37:37.391Z,100501.88
2022-07-29T23:40:08.670Z,100503.91
2022-07-29T23:42:38.885Z,100502.02
2022-07-29T23:45:07.465Z,100501.73
2022-07-29T23:47:35.411Z,100503.38
2022-07-29T23:50:04.324Z,100504.17
2022-07-29T23:52:32.074Z,100504.45
2022-07-29T23:55:38.181Z,100506.27
2022-07-29T23:57:49.921Z,100504.39
